Time;durP1;ratioP1;P1;durP2;ratioP2;P2;SDS_P1;SDS_P2;PMS_P1;PMS_P2;Temp;Humidity;BMP_temperature;BMP_pressure;BME280_temperature;BME280_humidity;BME280_pressure;Samples;Min_cycle;Max_cycle;Signal;HPM_P1;HPM_P2
2023/06/10 00:02:03;;;;;;;8.20;6.50;;;;;;;18.76;56.62;98807.88;5010267;28;20061;-80
2023/06/10 00:04:28;;;;;;;9.10;5.78;;;;;;;18.53;57.40;98806.97;5008642;28;20061;-81
2023/06/10 00:06:55;;;;;;;8.88;7.28;;;;;;;18.05;57.03;98810.31;4999309;28;20125;-80
2023/06/10 00:09:21;;;;;;;9.57;5.63;;;;;;;18.46;57.57;98790.34;4990111;28;20026;-80
2023/06/10 00:11:46;;;;;;;8.10;6.35;;;;;;;18.60;57.45;98801.97;5008835;28;20037;-80
2023/06/10 00:14:12;;;;;;;7.93;5.93;;;;;;;18.83;57.25;98807.47;5005406;28;20030;-80
2023/06/10 00:16:38;;;;;;;8.13;6.03;;;;;;;18.97;56.64;98809.03;4990527;28;20346;-81
2023/06/10 00:19:04;;;;;;;11.20;6.05;;;;;;;18.88;56.87;98805.44;5008269;28;20025;-80
2023/06/10 00:21:37;;;;;;;10.75;5.80;;;;;;;18.89;57.00;98811.66;5009771;28;20503;-81
2023/06/10 00:24:05;;;;;;;7.43;5.32;;;;;;;18.93;56.46;98808.06;5008279;28;20124;-81
2023/06/10 00:26:30;;;;;;;8.50;6.10;;;;;;;18.81;57.29;98796.13;5013071;28;20056;-81
2023/06/10 00:28:55;;;;;;;8.98;5.30;;;;;;;18.80;57.36;98808.06;5004773;28;20346;-81
2023/06/10 00:31:21;;;;;;;10.18;6.05;;;;;;;18.80;57.21;98806.16;5007847;28;20033;-81
2023/06/10 00:33:46;;;;;;;14.23;6.40;;;;;;;18.75;57.81;98803.56;5005622;28;20521;-81
2023/06/10 00:36:11;;;;;;;8.07;6.07;;;;;;;18.70;57.74;98807.16;4976220;28;20026;-81
2023/06/10 00:38:37;;;;;;;9.73;5.53;;;;;;;18.75;57.90;98810.88;4992568;28;20065;-81
2023/06/10 00:41:02;;;;;;;12.90;5.93;;;;;;;18.66;58.27;98810.78;5013141;28;20097;-80
2023/06/10 00:43:27;;;;;;;8.88;6.70;;;;;;;18.74;58.15;98817.38;5006508;28;20034;-81
2023/06/10 00:45:53;;;;;;;6.38;5.18;;;;;;;18.66;57.86;98813.47;5005278;28;20060;-81
2023/06/10 00:48:19;;;;;;;11.65;6.63;;;;;;;18.53;58.45;98800.78;5007594;28;20038;-81
2023/06/10 00:50:46;;;;;;;7.85;5.97;;;;;;;18.31;58.62;98811.44;5008974;28;20038;-81
2023/06/10 00:53:12;;;;;;;6.45;5.28;;;;;;;18.50;58.53;98814.91;4992859;28;20033;-81
2023/06/10 00:55:37;;;;;;;15.80;6.38;;;;;;;18.39;58.47;98800.72;5012683;28;20037;-80
2023/06/10 00:58:03;;;;;;;9.13;6.28;;;;;;;18.41;58.94;98811.25;4996102;28;20041;-81
2023/06/10 01:00:29;;;;;;;8.07;5.88;;;;;;;18.42;58.24;98805.53;5007860;28;20398;-81
2023/06/10 01:02:55;;;;;;;10.00;6.05;;;;;;;18.43;58.83;98800.94;5006683;28;20053;-81
2023/06/10 01:05:20;;;;;;;11.30;6.35;;;;;;;18.37;58.77;98792.13;4990486;28;20030;-81
2023/06/10 01:08:07;;;;;;;8.63;6.30;;;;;;;18.34;59.16;98806.25;5012628;28;20777;-80
2023/06/10 01:10:41;;;;;;;6.90;5.38;;;;;;;18.23;59.09;98788.63;4984008;28;20065;-80
2023/06/10 01:13:11;;;;;;;12.32;6.30;;;;;;;18.36;59.06;98800.53;5010543;28;20383;-81
2023/06/10 01:15:37;;;;;;;9.15;6.22;;;;;;;18.40;58.96;98804.25;5007250;28;20080;-81
2023/06/10 01:18:04;;;;;;;8.98;5.80;;;;;;;18.36;59.68;98801.34;5009243;28;20121;-81
2023/06/10 01:20:32;;;;;;;8.80;5.68;;;;;;;18.31;59.37;98803.34;5008147;28;20061;-81
2023/06/10 01:22:59;;;;;;;9.02;5.93;;;;;;;18.26;59.73;98804.22;5015042;28;20386;-81
2023/06/10 01:25:28;;;;;;;12.07;6.45;;;;;;;18.17;60.22;98803.34;5008552;28;20037;-81
2023/06/10 01:28:35;;;;;;;9.55;6.35;;;;;;;18.13;59.92;98806.94;5007528;28;20112;-81
2023/06/10 01:31:16;;;;;;;8.30;5.47;;;;;;;18.04;60.10;98808.72;4986127;28;20502;-81
2023/06/10 01:33:45;;;;;;;7.75;6.13;;;;;;;17.93;60.96;98810.81;5007949;28;20049;-81
2023/06/10 01:36:13;;;;;;;9.13;6.30;;;;;;;17.84;60.62;98812.56;5010223;28;20413;-81
2023/06/10 01:38:43;;;;;;;7.00;5.82;;;;;;;17.76;61.21;98808.63;5009123;28;20029;-81
2023/06/10 01:41:11;;;;;;;11.88;6.35;;;;;;;17.75;61.35;98801.66;5008259;28;20437;-80
2023/06/10 01:43:40;;;;;;;7.78;6.05;;;;;;;17.87;61.04;98804.69;5006964;28;20072;-80
2023/06/10 01:46:06;;;;;;;11.35;5.88;;;;;;;17.95;60.49;98805.91;5010325;28;20061;-81
2023/06/10 01:48:32;;;;;;;9.50;6.18;;;;;;;17.83;61.08;98811.78;4997257;28;20489;-80
2023/06/10 01:50:58;;;;;;;6.97;5.80;;;;;;;17.85;61.02;98806.06;5006618;28;20022;-80
2023/06/10 01:53:24;;;;;;;8.25;5.53;;;;;;;17.89;60.90;98818.69;5005491;28;20104;-80
2023/06/10 01:55:49;;;;;;;7.32;5.65;;;;;;;18.01;60.71;98815.50;5008433;28;20032;-80
2023/06/10 01:58:15;;;;;;;8.27;5.80;;;;;;;18.01;60.91;98806.59;5006355;28;20488;-80
2023/06/10 02:00:40;;;;;;;11.52;6.10;;;;;;;17.97;60.77;98806.41;5009037;28;20036;-80
2023/06/10 02:03:05;;;;;;;13.25;6.38;;;;;;;17.87;61.08;98817.38;5010795;28;20064;-80
2023/06/10 02:05:31;;;;;;;10.65;5.75;;;;;;;17.73;61.29;98806.56;5009590;28;20501;-80
2023/06/10 02:07:56;;;;;;;10.07;6.18;;;;;;;17.79;62.18;98809.97;5014935;28;20072;-81
2023/06/10 02:10:22;;;;;;;8.25;5.88;;;;;;;17.77;61.53;98807.56;5008669;28;20038;-81
2023/06/10 02:12:47;;;;;;;8.82;6.13;;;;;;;17.77;62.28;98812.97;4978553;28;20044;-81
2023/06/10 02:15:12;;;;;;;9.50;5.82;;;;;;;17.81;61.73;98813.16;5002420;28;20124;-80
2023/06/10 02:17:38;;;;;;;9.57;6.03;;;;;;;17.73;61.56;98821.94;5005501;28;20034;-81
2023/06/10 02:20:06;;;;;;;7.28;6.07;;;;;;;17.59;62.07;98824.59;5012073;28;20113;-81
2023/06/10 02:22:33;;;;;;;7.30;6.03;;;;;;;17.65;62.07;98825.28;5001122;28;20376;-81
2023/06/10 02:24:58;;;;;;;9.65;5.88;;;;;;;17.60;61.99;98817.28;5013171;28;20452;-81
2023/06/10 02:27:24;;;;;;;13.77;7.28;;;;;;;17.74;61.87;98835.13;5001397;28;20029;-80
2023/06/10 02:29:49;;;;;;;14.88;6.03;;;;;;;17.69;61.73;98835.22;5018092;28;20506;-80
2023/06/10 02:32:15;;;;;;;12.13;6.07;;;;;;;17.57;62.27;98834.06;5017699;28;20041;-80
2023/06/10 02:34:42;;;;;;;9.98;5.93;;;;;;;17.62;62.32;98845.59;5013200;28;20393;-80
2023/06/10 02:37:08;;;;;;;9.48;6.05;;;;;;;17.59;62.52;98834.56;5009834;28;20033;-80
2023/06/10 02:39:33;;;;;;;9.48;5.78;;;;;;;17.34;62.36;98822.25;5010146;28;20344;-80
2023/06/10 02:41:58;;;;;;;8.38;6.07;;;;;;;17.53;62.54;98833.06;5012564;28;20038;-80
2023/06/10 02:44:24;;;;;;;9.50;6.53;;;;;;;17.47;62.45;98837.72;5012753;28;20504;-80
2023/06/10 02:46:50;;;;;;;10.75;6.15;;;;;;;17.43;62.50;98835.91;4995269;28;20121;-80
2023/06/10 02:49:16;;;;;;;11.15;6.20;;;;;;;17.42;62.41;98845.06;5008482;28;20033;-80
2023/06/10 02:51:41;;;;;;;7.97;5.68;;;;;;;17.45;62.49;98855.28;5010211;28;20022;-81
2023/06/10 02:54:07;;;;;;;9.88;5.88;;;;;;;17.42;62.35;98845.88;5011137;28;20030;-80
2023/06/10 02:56:33;;;;;;;6.85;5.45;;;;;;;17.41;62.71;98852.34;5015281;28;20025;-80
2023/06/10 02:58:58;;;;;;;7.07;6.38;;;;;;;17.34;63.27;98841.16;5011982;28;20368;-80
2023/06/10 03:01:24;;;;;;;8.00;5.90;;;;;;;17.33;63.05;98853.03;5008501;28;20029;-80
2023/06/10 03:03:50;;;;;;;9.32;6.95;;;;;;;17.43;62.72;98846.69;5015573;28;20064;-80
2023/06/10 03:06:15;;;;;;;11.68;6.00;;;;;;;17.36;62.52;98840.84;5007748;28;20068;-80
2023/06/10 03:08:41;;;;;;;7.32;5.70;;;;;;;17.22;62.76;98825.41;5009435;28;20022;-80
2023/06/10 03:11:06;;;;;;;8.73;5.82;;;;;;;17.27;63.32;98838.00;5006866;28;20038;-80
2023/06/10 03:13:32;;;;;;;10.50;6.25;;;;;;;17.30;63.20;98842.81;4987043;28;20126;-80
2023/06/10 03:15:58;;;;;;;13.73;6.65;;;;;;;17.27;63.31;98834.50;5008977;28;20430;-79
2023/06/10 03:18:27;;;;;;;9.20;5.85;;;;;;;17.25;62.95;98834.81;5005259;28;20091;-79
2023/06/10 03:20:53;;;;;;;8.25;6.03;;;;;;;17.12;63.19;98828.22;5011479;28;20367;-80
2023/06/10 03:23:19;;;;;;;9.98;6.38;;;;;;;17.21;63.42;98845.34;5009450;28;20096;-80
2023/06/10 03:25:45;;;;;;;8.98;6.70;;;;;;;17.19;63.16;98833.25;5010251;28;20104;-80
2023/06/10 03:28:10;;;;;;;8.80;6.40;;;;;;;17.12;63.39;98835.53;5010141;28;20029;-80
2023/06/10 03:30:36;;;;;;;11.77;5.90;;;;;;;17.13;63.08;98831.72;4991189;28;20034;-81
2023/06/10 03:33:01;;;;;;;10.10;6.80;;;;;;;17.12;63.57;98839.00;5007848;28;20425;-81
2023/06/10 03:35:27;;;;;;;9.93;6.28;;;;;;;17.20;63.80;98845.66;5014464;28;20040;-81
2023/06/10 03:37:52;;;;;;;9.82;6.82;;;;;;;17.13;63.76;98837.94;5009944;28;20526;-81
2023/06/10 03:40:17;;;;;;;8.55;6.40;;;;;;;17.07;63.38;98844.50;5008533;28;20065;-81
2023/06/10 03:42:44;;;;;;;7.85;6.47;;;;;;;17.21;63.28;98839.97;4993514;28;20034;-81
2023/06/10 03:45:10;;;;;;;9.20;6.47;;;;;;;17.13;63.99;98848.72;5004067;28;20034;-81
2023/06/10 03:47:36;;;;;;;8.57;5.97;;;;;;;17.11;64.13;98834.72;5006866;28;22130;-81
2023/06/10 03:50:06;;;;;;;7.72;5.63;;;;;;;17.14;63.99;98849.53;5011296;28;20414;-81
2023/06/10 03:52:31;;;;;;;9.30;6.20;;;;;;;17.19;63.48;98847.53;5009898;28;20494;-81
2023/06/10 03:54:56;;;;;;;7.97;5.50;;;;;;;17.17;63.78;98841.63;5011147;28;20132;-81
2023/06/10 03:57:22;;;;;;;8.95;6.50;;;;;;;17.21;64.18;98841.88;5002229;28;20030;-81
2023/06/10 03:59:47;;;;;;;8.88;6.22;;;;;;;17.27;63.56;98850.69;5006553;28;20404;-81
2023/06/10 04:02:13;;;;;;;13.95;5.75;;;;;;;17.12;64.01;98847.09;5017576;28;20114;-80
2023/06/10 04:04:38;;;;;;;8.23;6.20;;;;;;;17.22;63.92;98841.56;5011480;28;20573;-80
2023/06/10 04:07:05;;;;;;;8.27;5.70;;;;;;;17.26;63.89;98857.97;4991094;28;20533;-80
2023/06/10 04:09:30;;;;;;;8.38;5.57;;;;;;;17.31;63.88;98855.22;5010290;28;20029;-80
2023/06/10 04:11:55;;;;;;;11.73;7.05;;;;;;;17.39;64.12;98851.03;5010763;28;20051;-80
2023/06/10 04:14:21;;;;;;;7.75;5.40;;;;;;;17.27;64.77;98843.41;5009237;28;20063;-80
2023/06/10 04:16:46;;;;;;;9.57;6.15;;;;;;;17.34;63.76;98845.75;5012140;28;20045;-80
2023/06/10 04:19:12;;;;;;;10.77;5.88;;;;;;;17.35;63.98;98850.84;4992950;28;20036;-80
2023/06/10 04:21:37;;;;;;;9.48;6.32;;;;;;;17.39;64.49;98859.13;5005257;28;20494;-80
2023/06/10 04:24:03;;;;;;;13.82;6.43;;;;;;;17.02;65.24;98852.63;5007542;28;20409;-80
2023/06/10 04:26:28;;;;;;;8.10;5.75;;;;;;;17.39;64.27;98838.34;5006501;28;20626;-80
2023/06/10 04:28:54;;;;;;;8.07;5.75;;;;;;;17.07;64.87;98836.41;4994476;28;20034;-80
2023/06/10 04:31:22;;;;;;;14.60;6.97;;;;;;;16.28;67.07;98852.41;5010318;28;20092;-81
2023/06/10 04:33:48;;;;;;;10.18;6.53;;;;;;;16.93;66.36;98857.06;4992415;28;20026;-81
2023/06/10 04:36:14;;;;;;;10.55;6.50;;;;;;;16.78;66.27;98856.44;4990372;28;21377;-82
2023/06/10 04:38:40;;;;;;;8.55;6.10;;;;;;;16.53;67.65;98859.44;5011396;28;20033;-82
2023/06/10 04:41:06;;;;;;;7.80;6.65;;;;;;;16.60;67.24;98839.13;5011143;28;20076;-82
2023/06/10 04:43:31;;;;;;;13.63;7.80;;;;;;;16.40;67.32;98852.84;5008678;28;20033;-81
2023/06/10 04:45:56;;;;;;;12.48;6.78;;;;;;;16.41;67.73;98844.44;5007628;28;20124;-81
2023/06/10 04:48:24;;;;;;;14.40;7.35;;;;;;;16.32;68.20;98856.94;5009363;28;20041;-80
2023/06/10 04:50:50;;;;;;;14.05;7.07;;;;;;;16.76;67.16;98870.22;5010993;28;20030;-81
2023/06/10 04:53:16;;;;;;;11.18;7.03;;;;;;;16.68;67.05;98849.31;5010670;28;20033;-80
2023/06/10 04:55:42;;;;;;;14.65;6.82;;;;;;;16.78;67.29;98851.88;5005832;28;20034;-81
2023/06/10 04:58:07;;;;;;;7.70;5.85;;;;;;;17.27;65.51;98859.59;5008454;28;20026;-81
2023/06/10 05:00:32;;;;;;;11.70;5.88;;;;;;;17.36;65.19;98857.84;4990722;28;20478;-82
2023/06/10 05:02:58;;;;;;;10.57;6.53;;;;;;;17.29;65.81;98854.69;4991251;28;20068;-80
2023/06/10 05:05:23;;;;;;;11.48;7.07;;;;;;;17.36;65.84;98865.13;5006386;28;20502;-81
2023/06/10 05:07:48;;;;;;;12.57;7.22;;;;;;;16.58;67.00;98854.00;5008307;28;20037;-82
2023/06/10 05:10:14;;;;;;;12.02;7.25;;;;;;;16.54;68.20;98858.34;5005143;28;20498;-82
2023/06/10 05:12:40;;;;;;;8.00;6.95;;;;;;;16.75;67.79;98857.03;5008958;28;20329;-81
2023/06/10 05:15:07;;;;;;;13.80;6.90;;;;;;;16.29;69.03;98864.78;5003710;28;20081;-81
2023/06/10 05:17:32;;;;;;;17.80;7.07;;;;;;;16.32;69.12;98881.19;5002462;28;20042;-82
2023/06/10 05:19:57;;;;;;;10.32;6.65;;;;;;;16.63;68.02;98880.88;5006125;28;20053;-81
2023/06/10 05:22:24;;;;;;;23.88;7.82;;;;;;;16.31;67.63;98879.59;4997970;28;20465;-82
2023/06/10 05:24:50;;;;;;;12.05;7.03;;;;;;;16.61;68.23;98883.06;4989871;28;20029;-82
2023/06/10 05:27:16;;;;;;;11.63;6.65;;;;;;;16.58;67.92;98876.34;5011542;28;20073;-83
2023/06/10 05:29:42;;;;;;;9.63;5.95;;;;;;;16.87;67.65;98868.19;4989973;28;20452;-82
2023/06/10 05:32:08;;;;;;;10.57;7.05;;;;;;;17.15;67.19;98892.38;5000240;28;20030;-82
2023/06/10 05:34:33;;;;;;;13.65;6.53;;;;;;;17.30;66.25;98879.78;5007154;28;20034;-82
2023/06/10 05:36:58;;;;;;;10.55;6.75;;;;;;;16.10;68.66;98882.72;5016512;28;20124;-82
2023/06/10 05:39:24;;;;;;;9.85;6.25;;;;;;;16.20;69.15;98882.66;5002396;28;20038;-82
2023/06/10 05:41:49;;;;;;;11.35;7.13;;;;;;;15.91;70.37;98901.47;5013564;28;20467;-82
2023/06/10 05:44:15;;;;;;;12.25;7.25;;;;;;;16.15;69.70;98896.16;5013688;28;20084;-81
2023/06/10 05:46:40;;;;;;;11.77;8.05;;;;;;;16.21;70.20;98890.44;5013020;28;20030;-81
2023/06/10 05:49:06;;;;;;;17.65;7.43;;;;;;;15.89;70.12;98886.69;5009238;28;20034;-81
2023/06/10 05:51:31;;;;;;;8.65;6.75;;;;;;;16.01;70.83;98887.16;5002524;28;20486;-81
2023/06/10 05:53:56;;;;;;;13.32;7.18;;;;;;;16.20;70.54;98888.03;5013339;28;20121;-81
2023/06/10 05:56:22;;;;;;;12.95;7.18;;;;;;;16.38;70.22;98888.13;4994982;28;20042;-81
2023/06/10 05:58:48;;;;;;;11.57;7.10;;;;;;;16.74;69.16;98895.84;4994957;28;20126;-82
2023/06/10 06:01:13;;;;;;;15.75;7.32;;;;;;;17.03;68.13;98892.00;5022092;28;20087;-82
2023/06/10 06:03:39;;;;;;;16.27;7.45;;;;;;;16.97;68.87;98886.97;5007681;28;20707;-82
2023/06/10 06:06:05;;;;;;;9.25;6.20;;;;;;;16.92;68.73;98893.22;5012000;28;20150;-82
2023/06/10 06:08:30;;;;;;;12.95;7.25;;;;;;;16.68;69.02;98903.22;5009548;28;20053;-82
2023/06/10 06:10:56;;;;;;;20.10;8.23;;;;;;;16.73;68.89;98900.44;5011479;28;20512;-82
2023/06/10 06:13:21;;;;;;;14.48;7.03;;;;;;;16.63;69.68;98905.13;5010044;28;20268;-81
2023/06/10 06:15:47;;;;;;;12.80;7.90;;;;;;;16.57;69.36;98885.53;5015255;28;20520;-81
2023/06/10 06:18:12;;;;;;;11.15;6.80;;;;;;;16.70;68.26;98862.47;5009560;28;20030;-82
2023/06/10 06:20:38;;;;;;;8.95;6.43;;;;;;;17.60;66.21;98891.00;5014541;28;20068;-82
2023/06/10 06:23:03;;;;;;;10.20;6.65;;;;;;;17.43;68.14;98876.38;4989138;28;20486;-82
2023/06/10 06:25:29;;;;;;;10.90;6.63;;;;;;;18.03;65.69;98893.53;5009756;28;20056;-81
2023/06/10 06:27:54;;;;;;;11.85;6.72;;;;;;;18.10;65.81;98888.56;5011149;28;20042;-81
2023/06/10 06:30:19;;;;;;;12.02;7.18;;;;;;;17.75;67.20;98890.75;5001873;28;20049;-81
2023/06/10 06:32:45;;;;;;;10.77;6.88;;;;;;;16.87;67.30;98887.06;5004151;28;20133;-81
2023/06/10 06:35:10;;;;;;;13.98;7.38;;;;;;;17.19;67.53;98881.81;5011097;28;20037;-81
2023/06/10 06:37:36;;;;;;;11.95;7.55;;;;;;;17.25;67.83;98884.13;4978583;28;20037;-81
2023/06/10 06:40:02;;;;;;;8.52;5.65;;;;;;;17.77;66.55;98885.84;5010966;28;20065;-81
2023/06/10 06:42:27;;;;;;;13.40;6.70;;;;;;;17.78;65.31;98890.16;5001226;28;20036;-81
2023/06/10 06:44:53;;;;;;;10.93;6.90;;;;;;;17.68;66.81;98894.91;5007489;28;20034;-81
2023/06/10 06:47:19;;;;;;;10.18;6.53;;;;;;;17.86;66.25;98903.00;5012532;28;20515;-82
2023/06/10 06:49:46;;;;;;;13.95;7.68;;;;;;;17.42;66.90;98883.66;5017320;28;20076;-81
2023/06/10 06:52:11;;;;;;;10.68;6.93;;;;;;;17.76;66.46;98888.84;5006258;28;20037;-81
2023/06/10 06:54:38;;;;;;;8.27;5.78;;;;;;;17.94;67.17;98902.31;4992279;28;20025;-82
2023/06/10 06:57:03;;;;;;;9.45;6.60;;;;;;;18.08;66.18;98896.97;4999617;28;20395;-81
2023/06/10 06:59:28;;;;;;;11.35;6.75;;;;;;;17.75;66.17;98901.56;5004970;28;20037;-81
2023/06/10 07:01:54;;;;;;;12.18;7.32;;;;;;;17.68;66.66;98901.13;5008572;28;20038;-81
2023/06/10 07:04:21;;;;;;;12.15;7.35;;;;;;;17.49;67.68;98897.59;5022545;28;20139;-80
2023/06/10 07:06:47;;;;;;;12.30;6.82;;;;;;;18.10;67.90;98912.88;5009268;28;20121;-81
2023/06/10 07:09:13;;;;;;;10.85;7.15;;;;;;;17.78;67.18;98908.25;5009696;28;20116;-80
2023/06/10 07:11:38;;;;;;;13.15;6.82;;;;;;;17.76;67.37;98905.03;5010439;28;20605;-80
2023/06/10 07:14:04;;;;;;;10.30;5.55;;;;;;;18.64;65.17;98894.09;5005797;28;20088;-80
2023/06/10 07:16:29;;;;;;;14.73;6.63;;;;;;;18.53;65.07;98908.91;5013308;28;20035;-81
2023/06/10 07:18:55;;;;;;;12.40;7.68;;;;;;;18.36;66.63;98908.63;5009751;28;20397;-80
2023/06/10 07:21:20;;;;;;;12.48;7.57;;;;;;;18.41;66.68;98908.56;5011202;28;20085;-80
2023/06/10 07:23:46;;;;;;;13.98;7.10;;;;;;;18.12;66.37;98918.78;4991947;28;20108;-80
2023/06/10 07:26:13;;;;;;;14.50;7.22;;;;;;;18.32;65.60;98908.44;5010215;28;20053;-80
2023/06/10 07:28:39;;;;;;;13.57;6.55;;;;;;;18.64;65.10;98904.91;5010509;28;20387;-81
2023/06/10 07:31:05;;;;;;;8.25;6.70;;;;;;;18.53;64.91;98911.59;5023301;28;20034;-81
2023/06/10 07:33:30;;;;;;;12.20;6.82;;;;;;;19.18;65.49;98923.03;5013347;28;20120;-80
2023/06/10 07:35:55;;;;;;;10.57;6.75;;;;;;;19.08;65.75;98934.06;5009308;28;20120;-80
2023/06/10 07:38:21;;;;;;;10.05;6.78;;;;;;;18.90;66.02;98921.44;5009454;28;20381;-80
2023/06/10 07:40:46;;;;;;;11.63;6.55;;;;;;;19.26;64.69;98920.41;5012747;28;20269;-81
2023/06/10 07:43:12;;;;;;;14.40;7.05;;;;;;;18.97;65.16;98919.94;5011584;28;20084;-80
2023/06/10 07:45:39;;;;;;;10.65;6.53;;;;;;;18.95;65.87;98916.75;5008374;28;20022;-79
2023/06/10 07:48:05;;;;;;;12.95;7.05;;;;;;;19.13;66.26;98923.16;5017824;28;20033;-80
2023/06/10 07:50:30;;;;;;;10.27;6.20;;;;;;;19.66;64.13;98926.09;5008972;28;20032;-80
2023/06/10 07:52:56;;;;;;;8.10;7.28;;;;;;;19.64;67.16;98917.44;5011587;28;20034;-81
2023/06/10 07:55:21;;;;;;;9.05;6.88;;;;;;;19.84;67.07;98922.41;5010600;28;20473;-80
2023/06/10 07:57:46;;;;;;;12.30;8.55;;;;;;;19.49;65.27;98921.31;5005727;28;20042;-80
2023/06/10 08:00:12;;;;;;;12.38;7.57;;;;;;;18.98;66.19;98920.75;4995193;28;20030;-80
2023/06/10 08:02:38;;;;;;;13.15;8.20;;;;;;;18.97;66.76;98919.94;5008837;28;20082;-81
2023/06/10 08:05:03;;;;;;;11.50;7.88;;;;;;;19.97;66.61;98918.84;5010582;28;20033;-81
2023/06/10 08:07:29;;;;;;;8.60;6.30;;;;;;;19.79;64.46;98923.31;4993075;28;20287;-81
2023/06/10 08:09:54;;;;;;;15.38;7.55;;;;;;;19.90;64.63;98923.88;4994213;28;20149;-81
2023/06/10 08:12:21;;;;;;;11.65;7.35;;;;;;;19.44;65.30;98908.69;4971189;28;20042;-81
2023/06/10 08:14:46;;;;;;;12.45;6.82;;;;;;;19.72;66.02;98916.75;5006875;28;20509;-81
2023/06/10 08:17:12;;;;;;;10.13;7.32;;;;;;;19.58;66.50;98913.25;5000263;28;20034;-81
2023/06/10 08:19:37;;;;;;;11.52;7.50;;;;;;;20.60;63.94;98913.19;5014641;28;20041;-81
2023/06/10 08:22:02;;;;;;;11.23;6.65;;;;;;;20.21;63.98;98921.25;5010797;28;20040;-81
2023/06/10 08:24:28;;;;;;;15.10;7.90;;;;;;;20.08;64.13;98925.63;5010286;28;20112;-81
2023/06/10 08:26:55;;;;;;;10.52;6.25;;;;;;;20.68;62.85;98899.69;4999934;28;20034;-81
2023/06/10 08:29:20;;;;;;;12.32;7.53;;;;;;;20.50;64.46;98914.28;4986235;28;20029;-81
2023/06/10 08:31:45;;;;;;;13.23;6.80;;;;;;;20.42;65.22;98915.00;5005423;28;20045;-81
2023/06/10 08:34:11;;;;;;;15.32;8.00;;;;;;;20.50;64.38;98903.44;4987522;28;21242;-81
2023/06/10 08:36:37;;;;;;;8.73;6.05;;;;;;;21.56;60.37;98903.13;5008972;28;20058;-81
2023/06/10 08:39:02;;;;;;;15.57;8.05;;;;;;;21.07;63.34;98900.81;4989560;28;20036;-82
2023/06/10 08:41:30;;;;;;;10.10;7.35;;;;;;;20.50;64.76;98914.28;5010216;28;20494;-81
2023/06/10 08:44:12;;;;;;;9.77;7.07;;;;;;;20.49;65.25;98915.38;5009186;28;20080;-81
2023/06/10 08:46:40;;;;;;;13.15;7.22;;;;;;;20.35;65.36;98908.44;5013517;28;20049;-81
2023/06/10 08:49:09;;;;;;;10.93;7.55;;;;;;;21.08;66.24;98910.56;4991471;28;20034;-80
2023/06/10 08:51:36;;;;;;;10.30;7.07;;;;;;;21.18;64.46;98899.41;5009446;28;20042;-81
2023/06/10 08:54:09;;;;;;;11.52;6.95;;;;;;;20.98;65.37;98900.75;5007198;28;20073;-82
2023/06/10 08:56:39;;;;;;;13.00;8.00;;;;;;;21.10;64.72;98905.63;5007971;28;20053;-81
2023/06/10 08:59:06;;;;;;;13.55;7.15;;;;;;;20.90;63.50;98905.03;5006348;28;20040;-81
2023/06/10 09:01:31;;;;;;;11.35;7.70;;;;;;;20.99;62.92;98904.28;5001700;28;20087;-80
2023/06/10 09:03:58;;;;;;;10.50;6.10;;;;;;;21.43;62.39;98910.28;5011530;28;20038;-81
2023/06/10 09:06:25;;;;;;;13.63;7.25;;;;;;;22.47;59.09;98909.16;5017525;28;20501;-82
2023/06/10 09:08:50;;;;;;;10.70;7.55;;;;;;;21.96;61.47;98903.78;5021608;28;20654;-80
2023/06/10 09:11:16;;;;;;;12.18;6.78;;;;;;;21.88;61.30;98905.41;5004276;28;20034;-81
2023/06/10 09:13:42;;;;;;;9.95;6.63;;;;;;;22.64;61.36;98911.84;4991131;28;20459;-81
2023/06/10 09:16:07;;;;;;;9.75;7.30;;;;;;;21.63;62.30;98900.72;5003145;28;20171;-80
2023/06/10 09:18:34;;;;;;;11.75;6.90;;;;;;;21.48;62.08;98909.34;5003432;28;20030;-81
2023/06/10 09:20:59;;;;;;;13.60;7.70;;;;;;;21.38;62.71;98906.94;5005882;28;20688;-80
2023/06/10 09:23:26;;;;;;;10.05;7.93;;;;;;;21.73;62.33;98905.88;5020589;28;20072;-80
2023/06/10 09:25:57;;;;;;;11.70;7.65;;;;;;;21.77;62.63;98906.00;5009307;28;20038;-80
2023/06/10 09:28:23;;;;;;;8.80;6.18;;;;;;;22.76;59.68;98900.28;5025708;28;20022;-80
2023/06/10 09:30:49;;;;;;;9.40;6.47;;;;;;;22.70;60.24;98896.91;5007731;28;20048;-82
2023/06/10 09:33:15;;;;;;;8.93;7.38;;;;;;;22.35;62.54;98893.50;5007936;28;20129;-80
2023/06/10 09:35:50;;;;;;;8.77;6.30;;;;;;;22.64;60.76;98883.81;5010829;28;20064;-80
2023/06/10 09:38:31;;;;;;;10.30;6.53;;;;;;;23.01;59.92;98883.81;5006019;28;20797;-81
2023/06/10 09:40:56;;;;;;;10.38;7.65;;;;;;;22.81;60.73;98894.63;5009785;28;20489;-81
2023/06/10 09:43:22;;;;;;;10.93;7.80;;;;;;;22.48;62.49;98890.88;5015623;28;20030;-81
2023/06/10 09:45:49;;;;;;;9.88;6.65;;;;;;;22.42;61.27;98892.19;5007498;28;20064;-81
2023/06/10 09:48:23;;;;;;;14.60;9.13;;;;;;;22.36;61.88;98886.94;5009817;28;20084;-81
2023/06/10 09:50:49;;;;;;;11.75;8.43;;;;;;;22.52;61.44;98886.41;5008150;28;20030;-80
2023/06/10 09:53:16;;;;;;;11.50;8.23;;;;;;;22.65;61.38;98888.16;5008734;28;20044;-80
2023/06/10 09:55:42;;;;;;;9.85;7.85;;;;;;;23.08;60.66;98880.56;5011319;28;20186;-79
2023/06/10 09:58:07;;;;;;;16.98;8.57;;;;;;;22.82;59.57;98880.72;4989806;28;20124;-80
2023/06/10 10:00:33;;;;;;;12.35;7.15;;;;;;;23.25;60.21;98882.38;4989539;28;20030;-79
2023/06/10 10:03:01;;;;;;;13.10;7.88;;;;;;;23.32;59.84;98878.03;5007250;28;20037;-79
2023/06/10 10:05:28;;;;;;;14.15;8.50;;;;;;;23.09;60.10;98872.06;5007236;28;20588;-80
2023/06/10 10:07:53;;;;;;;11.18;7.30;;;;;;;23.11;60.45;98888.06;5004496;28;20034;-80
2023/06/10 10:10:20;;;;;;;18.73;8.60;;;;;;;23.69;60.50;98882.59;5021616;28;20125;-80
2023/06/10 10:12:48;;;;;;;10.90;7.53;;;;;;;24.08;58.15;98886.75;5007336;28;20072;-80
2023/06/10 10:15:16;;;;;;;12.75;7.82;;;;;;;23.46;59.15;98877.81;5002611;28;20125;-80
2023/06/10 10:18:06;;;;;;;15.15;7.55;;;;;;;24.15;58.10;98873.34;4987904;28;20037;-80
2023/06/10 10:20:34;;;;;;;14.00;8.52;;;;;;;23.54;59.36;98874.19;5009463;28;20029;-80
2023/06/10 10:23:03;;;;;;;12.50;7.72;;;;;;;23.18;60.25;98876.66;5026253;28;20038;-80
2023/06/10 10:25:36;;;;;;;13.18;8.60;;;;;;;23.14;59.86;98881.97;4975033;28;20029;-80
2023/06/10 10:28:07;;;;;;;11.85;7.57;;;;;;;24.29;58.00;98873.03;5010157;28;20101;-79
2023/06/10 10:30:42;;;;;;;10.57;7.70;;;;;;;23.54;58.01;98863.31;5018234;28;20056;-80
2023/06/10 10:33:19;;;;;;;13.45;8.23;;;;;;;23.98;58.99;98872.69;5015835;28;20105;-80
2023/06/10 10:35:46;;;;;;;10.20;7.38;;;;;;;23.45;60.01;98877.00;5009911;28;20034;-80
2023/06/10 10:38:12;;;;;;;13.45;8.30;;;;;;;23.55;60.13;98873.06;5010331;28;20033;-78
2023/06/10 10:40:39;;;;;;;10.93;7.55;;;;;;;23.89;59.57;98874.72;5008315;28;20435;-79
2023/06/10 10:43:05;;;;;;;15.45;8.32;;;;;;;24.35;59.44;98877.16;5008023;28;20572;-79
2023/06/10 10:45:32;;;;;;;18.30;9.10;;;;;;;24.67;57.85;98867.31;5010395;28;20088;-79
2023/06/10 10:48:03;;;;;;;13.63;9.20;;;;;;;24.98;58.75;98868.38;5011610;28;20033;-80
2023/06/10 10:50:30;;;;;;;10.30;7.97;;;;;;;24.96;57.12;98861.66;5011423;28;20114;-80
2023/06/10 10:52:59;;;;;;;13.52;7.43;;;;;;;24.51;58.34;98864.44;5010774;28;20037;-80
2023/06/10 10:55:26;;;;;;;15.55;8.88;;;;;;;24.36;57.97;98867.81;5009725;28;20100;-80
2023/06/10 10:57:58;;;;;;;13.93;8.10;;;;;;;24.94;58.47;98850.28;5011003;28;20021;-80
2023/06/10 11:00:35;;;;;;;11.40;7.43;;;;;;;25.83;56.08;98857.28;5007392;28;20021;-80
2023/06/10 11:03:03;;;;;;;11.05;7.03;;;;;;;26.02;55.48;98854.66;4999959;28;20034;-80
2023/06/10 11:05:49;;;;;;;11.32;7.63;;;;;;;25.90;56.15;98854.75;5009773;28;20080;-80
2023/06/10 11:08:35;;;;;;;13.00;7.93;;;;;;;25.86;55.89;98846.41;5008772;28;20076;-80
2023/06/10 11:11:17;;;;;;;12.38;7.50;;;;;;;24.97;53.96;98838.66;5007971;28;20287;-80
2023/06/10 11:14:01;;;;;;;9.60;7.18;;;;;;;25.29;54.96;98854.88;5005516;28;20521;-80
2023/06/10 11:16:45;;;;;;;9.02;7.70;;;;;;;25.32;55.46;98845.22;5007190;28;20489;-79
2023/06/10 11:19:34;;;;;;;11.82;7.38;;;;;;;25.70;54.31;98851.06;5012992;28;20033;-79
2023/06/10 11:22:01;;;;;;;10.75;7.07;;;;;;;25.98;52.65;98840.09;5008042;28;20025;-80
2023/06/10 11:24:26;;;;;;;10.48;7.20;;;;;;;26.44;51.69;98824.91;5007843;28;20469;-80
2023/06/10 11:26:52;;;;;;;13.15;7.50;;;;;;;26.86;50.98;98831.47;5009414;28;20030;-81
2023/06/10 11:29:17;;;;;;;12.23;7.65;;;;;;;26.99;51.07;98832.94;5005328;28;20034;-81